Time;durP1;ratioP1;P1;durP2;ratioP2;P2;SDS_P1;SDS_P2;PMS_P1;PMS_P2;Temp;Humidity;BMP_temperature;BMP_pressure;BME280_temperature;BME280_humidity;BME280_pressure;Samples;Min_cycle;Max_cycle;Signal;HPM_P1;HPM_P2
2023/08/24 00:01:52;;;;;;;;;;;21.40;86.60;;;;;;5033851;28;19909;-76
2023/08/24 00:04:17;;;;;;;;;;;21.40;86.60;;;;;;5067016;28;20460;-76
2023/08/24 00:06:43;;;;;;;;;;;21.30;86.70;;;;;;5067033;28;19910;-76
2023/08/24 00:09:08;;;;;;;;;;;21.30;86.80;;;;;;5034695;28;19971;-76
2023/08/24 00:11:34;;;;;;;;;;;21.30;86.80;;;;;;5035012;28;19913;-76
2023/08/24 00:13:59;;;;;;;;;;;21.30;86.90;;;;;;5034671;28;19919;-76
2023/08/24 00:16:25;;;;;;;;;;;21.30;87.00;;;;;;5033477;28;19963;-76
2023/08/24 00:18:50;;;;;;;;;;;21.30;87.10;;;;;;5034682;28;20004;-76
2023/08/24 00:21:22;;;;;;;;;;;21.20;87.10;;;;;;5034685;28;20353;-76
2023/08/24 00:23:48;;;;;;;;;;;21.20;87.30;;;;;;5034888;28;19909;-76
2023/08/24 00:26:16;;;;;;;;;;;21.20;87.20;;;;;;5033544;28;19916;-76
2023/08/24 00:28:42;;;;;;;;;;;21.10;87.40;;;;;;5034381;28;19909;-76
2023/08/24 00:31:08;;;;;;;;;;;21.10;87.20;;;;;;5033082;28;20262;-76
2023/08/24 00:33:33;;;;;;;;;;;21.10;87.50;;;;;;5033162;28;19916;-76
2023/08/24 00:36:00;;;;;;;;;;;21.10;87.40;;;;;;5033424;28;20313;-76
2023/08/24 00:38:25;;;;;;;;;;;21.10;87.60;;;;;;5034327;28;20518;-76
2023/08/24 00:40:52;;;;;;;;;;;21.10;87.70;;;;;;5034536;28;19909;-76
2023/08/24 00:43:22;;;;;;;;;;;21.00;87.70;;;;;;5034446;28;19910;-76
2023/08/24 00:45:47;;;;;;;;;;;21.00;87.90;;;;;;5066461;28;19916;-76
2023/08/24 00:48:13;;;;;;;;;;;21.00;87.80;;;;;;5034116;28;19909;-76
2023/08/24 00:50:38;;;;;;;;;;;21.00;87.80;;;;;;5034228;28;19916;-76
2023/08/24 00:53:04;;;;;;;;;;;20.90;88.10;;;;;;5034288;28;19910;-76
2023/08/24 00:55:29;;;;;;;;;;;20.90;88.00;;;;;;5034023;28;19924;-76
2023/08/24 00:57:55;;;;;;;;;;;20.90;88.30;;;;;;5032792;28;19967;-76
2023/08/24 01:00:22;;;;;;;;;;;20.90;87.90;;;;;;5034108;28;20269;-76
2023/08/24 01:02:47;;;;;;;;;;;20.80;88.10;;;;;;5034230;28;20381;-76
2023/08/24 01:05:13;;;;;;;;;;;20.80;88.10;;;;;;5032689;28;19967;-76
2023/08/24 01:07:39;;;;;;;;;;;20.80;88.10;;;;;;5033638;28;19991;-76
2023/08/24 01:10:06;;;;;;;;;;;20.80;88.30;;;;;;5033879;28;20258;-76
2023/08/24 01:12:31;;;;;;;;;;;20.80;88.40;;;;;;5033571;28;19915;-76
2023/08/24 01:15:15;;;;;;;;;;;20.70;88.40;;;;;;5033640;28;19913;-76
2023/08/24 01:17:42;;;;;;;;;;;20.70;88.50;;;;;;5032220;28;19910;-76
2023/08/24 01:20:09;;;;;;;;;;;20.70;88.70;;;;;;5033842;28;19916;-76
2023/08/24 01:22:46;;;;;;;;;;;20.70;88.60;;;;;;5033765;28;19936;-76
2023/08/24 01:25:11;;;;;;;;;;;20.60;88.70;;;;;;5033513;28;20457;-76
2023/08/24 01:27:37;;;;;;;;;;;20.60;88.90;;;;;;5032831;28;19913;-76
2023/08/24 01:30:04;;;;;;;;;;;20.60;89.10;;;;;;5033307;28;19995;-76
2023/08/24 01:32:33;;;;;;;;;;;20.60;89.00;;;;;;5065482;28;20427;-76
2023/08/24 01:34:59;;;;;;;;;;;20.60;88.70;;;;;;5033443;28;19998;-76
2023/08/24 01:37:24;;;;;;;;;;;20.60;89.10;;;;;;5033281;28;20350;-76
2023/08/24 01:40:14;;;;;;;;;;;20.50;89.30;;;;;;5033310;28;19958;-76
2023/08/24 01:42:51;;;;;;;;;;;20.50;89.30;;;;;;5033421;28;20054;-76
2023/08/24 01:45:18;;;;;;;;;;;20.50;89.90;;;;;;5033342;28;19909;-76
2023/08/24 01:47:45;;;;;;;;;;;20.50;89.80;;;;;;5032860;28;19916;-76
2023/08/24 01:50:10;;;;;;;;;;;20.40;89.70;;;;;;5032012;28;19909;-76
2023/08/24 01:52:36;;;;;;;;;;;20.40;90.00;;;;;;5033081;28;20388;-76
2023/08/24 01:55:01;;;;;;;;;;;20.40;89.90;;;;;;5032819;28;19920;-76
2023/08/24 01:57:27;;;;;;;;;;;20.40;90.00;;;;;;5032770;28;19913;-76
2023/08/24 01:59:52;;;;;;;;;;;20.40;89.70;;;;;;5031293;28;19913;-76
2023/08/24 02:02:18;;;;;;;;;;;20.30;89.80;;;;;;5032183;28;19910;-76
2023/08/24 02:04:43;;;;;;;;;;;20.30;89.90;;;;;;5032160;28;19909;-76
2023/08/24 02:07:09;;;;;;;;;;;20.30;90.00;;;;;;5032179;28;20376;-76
2023/08/24 02:09:34;;;;;;;;;;;20.30;90.10;;;;;;5030375;28;19913;-76
2023/08/24 02:12:00;;;;;;;;;;;20.30;90.10;;;;;;5032090;28;19916;-76
2023/08/24 02:14:25;;;;;;;;;;;20.30;90.20;;;;;;5064496;28;19913;-76
2023/08/24 02:16:51;;;;;;;;;;;20.30;90.30;;;;;;5032865;28;19909;-76
2023/08/24 02:19:16;;;;;;;;;;;20.20;90.10;;;;;;5064599;28;19909;-76
2023/08/24 02:21:42;;;;;;;;;;;20.20;90.10;;;;;;5031879;28;20293;-76
2023/08/24 02:24:08;;;;;;;;;;;20.20;90.20;;;;;;5063874;28;20006;-76
2023/08/24 02:26:33;;;;;;;;;;;20.20;90.20;;;;;;5031760;28;19916;-75
2023/08/24 02:28:59;;;;;;;;;;;20.20;90.00;;;;;;5031534;28;19917;-75
2023/08/24 02:31:24;;;;;;;;;;;20.20;90.10;;;;;;5031677;28;19919;-75
2023/08/24 02:33:50;;;;;;;;;;;20.10;90.40;;;;;;5031499;28;19909;-76
2023/08/24 02:36:15;;;;;;;;;;;20.10;90.20;;;;;;5031547;28;20267;-76
2023/08/24 02:38:41;;;;;;;;;;;20.10;90.30;;;;;;5031443;28;19916;-76
2023/08/24 02:41:07;;;;;;;;;;;20.10;90.40;;;;;;5032420;28;19910;-76
2023/08/24 02:43:33;;;;;;;;;;;20.10;90.50;;;;;;5032872;28;19916;-76
2023/08/24 02:46:03;;;;;;;;;;;20.10;90.50;;;;;;5032504;28;19913;-75
2023/08/24 02:48:28;;;;;;;;;;;20.00;90.60;;;;;;5031327;28;20246;-75
2023/08/24 02:50:54;;;;;;;;;;;20.00;90.50;;;;;;5031433;28;19968;-75
2023/08/24 02:53:19;;;;;;;;;;;20.00;90.50;;;;;;5063483;28;19960;-75
2023/08/24 02:55:45;;;;;;;;;;;20.00;90.50;;;;;;5029880;28;19970;-75
2023/08/24 02:58:10;;;;;;;;;;;20.00;90.80;;;;;;5031466;28;19909;-70
2023/08/24 03:00:39;;;;;;;;;;;20.00;90.70;;;;;;5031973;28;19909;-70
2023/08/24 03:03:05;;;;;;;;;;;19.90;90.60;;;;;;5032034;28;19982;-70
2023/08/24 03:05:32;;;;;;;;;;;19.90;91.00;;;;;;5030065;28;19909;-70
2023/08/24 03:07:57;;;;;;;;;;;19.90;90.70;;;;;;5031042;28;19909;-71
2023/08/24 03:10:23;;;;;;;;;;;19.90;90.70;;;;;;5031276;28;19916;-70
2023/08/24 03:12:49;;;;;;;;;;;19.90;90.90;;;;;;5030007;28;20388;-70
2023/08/24 03:15:14;;;;;;;;;;;19.90;90.70;;;;;;5031091;28;19967;-70
2023/08/24 03:17:40;;;;;;;;;;;19.90;90.80;;;;;;5031516;28;19926;-70
2023/08/24 03:20:06;;;;;;;;;;;19.80;90.80;;;;;;5030866;28;19928;-70
2023/08/24 03:22:32;;;;;;;;;;;19.90;90.80;;;;;;5031666;28;20284;-70
2023/08/24 03:24:57;;;;;;;;;;;19.90;90.60;;;;;;5031148;28;19916;-70
2023/08/24 03:27:23;;;;;;;;;;;19.80;90.60;;;;;;5031013;28;20374;-70
2023/08/24 03:29:54;;;;;;;;;;;19.80;90.80;;;;;;5031815;28;19924;-70
2023/08/24 03:32:20;;;;;;;;;;;19.80;91.10;;;;;;5064126;28;19916;-76
2023/08/24 03:34:45;;;;;;;;;;;19.80;90.90;;;;;;5032121;28;19916;-76
2023/08/24 03:37:11;;;;;;;;;;;19.80;90.90;;;;;;5063981;28;20235;-76
2023/08/24 03:39:36;;;;;;;;;;;19.80;91.00;;;;;;5031821;28;19971;-70
2023/08/24 03:42:02;;;;;;;;;;;19.80;91.00;;;;;;5031053;28;19917;-70
2023/08/24 03:44:27;;;;;;;;;;;19.80;90.90;;;;;;5030923;28;19917;-70
2023/08/24 03:46:53;;;;;;;;;;;19.80;90.60;;;;;;5030972;28;20424;-70
2023/08/24 03:49:19;;;;;;;;;;;19.80;90.70;;;;;;5030770;28;19964;-70
2023/08/24 03:51:44;;;;;;;;;;;19.80;90.80;;;;;;5034649;28;19909;-70
2023/08/24 03:54:10;;;;;;;;;;;19.80;90.90;;;;;;5066480;28;19920;-76
2023/08/24 03:56:35;;;;;;;;;;;19.70;90.70;;;;;;5035047;28;20346;-76
2023/08/24 03:59:01;;;;;;;;;;;19.80;90.90;;;;;;5035449;28;19999;-76
2023/08/24 04:01:26;;;;;;;;;;;19.70;90.90;;;;;;5034219;28;19920;-76
2023/08/24 04:03:52;;;;;;;;;;;19.70;90.90;;;;;;5034207;28;19916;-76
2023/08/24 04:06:18;;;;;;;;;;;19.70;90.80;;;;;;5035878;28;19909;-76
2023/08/24 04:08:43;;;;;;;;;;;19.70;90.90;;;;;;5033760;28;20004;-76
2023/08/24 04:11:08;;;;;;;;;;;19.70;90.90;;;;;;5035192;28;19932;-76
2023/08/24 04:13:34;;;;;;;;;;;19.70;90.90;;;;;;5035290;28;19913;-76
2023/08/24 04:15:59;;;;;;;;;;;19.70;91.00;;;;;;5067157;28;19913;-76
2023/08/24 04:18:25;;;;;;;;;;;19.70;90.90;;;;;;5034826;28;20425;-76
2023/08/24 04:20:51;;;;;;;;;;;19.70;90.90;;;;;;5035100;28;19916;-76
2023/08/24 04:23:17;;;;;;;;;;;19.70;91.00;;;;;;5040703;28;19916;-76
2023/08/24 04:25:43;;;;;;;;;;;19.70;91.00;;;;;;5034978;28;19909;-76
2023/08/24 04:28:08;;;;;;;;;;;19.70;91.10;;;;;;5033550;28;19959;-76
2023/08/24 04:30:34;;;;;;;;;;;19.70;91.10;;;;;;5034845;28;19949;-76
2023/08/24 04:32:59;;;;;;;;;;;19.70;91.10;;;;;;5034797;28;19909;-76
2023/08/24 04:35:25;;;;;;;;;;;19.70;91.20;;;;;;5034712;28;19917;-75
2023/08/24 04:37:51;;;;;;;;;;;19.70;91.10;;;;;;5034546;28;19910;-76
2023/08/24 04:40:16;;;;;;;;;;;19.70;91.30;;;;;;5033398;28;19915;-76
2023/08/24 04:42:42;;;;;;;;;;;19.70;91.30;;;;;;5034648;28;20273;-75
2023/08/24 04:45:08;;;;;;;;;;;19.70;91.20;;;;;;5034736;28;19967;-76
2023/08/24 04:47:33;;;;;;;;;;;19.70;91.20;;;;;;5034270;28;19963;-76
2023/08/24 04:49:59;;;;;;;;;;;19.70;91.30;;;;;;5034197;28;19916;-75
2023/08/24 04:52:24;;;;;;;;;;;19.70;91.30;;;;;;5034283;28;19921;-76
2023/08/24 04:54:49;;;;;;;;;;;19.70;91.40;;;;;;5034317;28;19913;-76
2023/08/24 04:57:16;;;;;;;;;;;19.60;91.30;;;;;;5034183;28;19936;-75
2023/08/24 04:59:41;;;;;;;;;;;19.70;91.40;;;;;;5034196;28;19936;-76
2023/08/24 05:02:07;;;;;;;;;;;19.60;91.40;;;;;;5032109;28;19909;-75
2023/08/24 05:04:33;;;;;;;;;;;19.60;91.40;;;;;;5032526;28;19917;-75
2023/08/24 05:06:58;;;;;;;;;;;19.60;91.40;;;;;;5033104;28;20370;-75
2023/08/24 05:09:24;;;;;;;;;;;19.60;91.50;;;;;;5032625;28;19909;-75
2023/08/24 05:11:50;;;;;;;;;;;19.60;91.50;;;;;;5034054;28;19915;-75
2023/08/24 05:14:15;;;;;;;;;;;19.60;91.50;;;;;;5032601;28;19982;-75
2023/08/24 05:16:41;;;;;;;;;;;19.60;91.50;;;;;;5034012;28;19953;-75
2023/08/24 05:19:06;;;;;;;;;;;19.60;91.60;;;;;;5033604;28;19932;-75
2023/08/24 05:21:32;;;;;;;;;;;19.60;91.60;;;;;;5033749;28;19913;-75
2023/08/24 05:23:57;;;;;;;;;;;19.60;91.60;;;;;;5033900;28;20484;-75
2023/08/24 05:26:24;;;;;;;;;;;19.60;91.70;;;;;;5033719;28;19909;-75
2023/08/24 05:28:50;;;;;;;;;;;19.60;91.60;;;;;;5033514;28;19912;-75
2023/08/24 05:31:15;;;;;;;;;;;19.60;91.70;;;;;;5033718;28;19925;-75
2023/08/24 05:33:41;;;;;;;;;;;19.60;91.80;;;;;;5033452;28;19955;-75
2023/08/24 05:36:06;;;;;;;;;;;19.60;91.80;;;;;;5033506;28;19909;-75
2023/08/24 05:38:32;;;;;;;;;;;19.60;91.80;;;;;;5033363;28;19929;-76
2023/08/24 05:40:57;;;;;;;;;;;19.60;91.90;;;;;;5033504;28;20393;-75
2023/08/24 05:43:23;;;;;;;;;;;19.60;91.80;;;;;;5033459;28;19909;-75
2023/08/24 05:45:49;;;;;;;;;;;19.60;91.90;;;;;;5033461;28;20239;-75
2023/08/24 05:48:14;;;;;;;;;;;19.60;91.80;;;;;;5033236;28;19909;-75
2023/08/24 05:50:44;;;;;;;;;;;19.60;91.90;;;;;;5033192;28;20376;-75
2023/08/24 05:53:09;;;;;;;;;;;19.60;91.90;;;;;;5033258;28;19909;-75
2023/08/24 05:55:35;;;;;;;;;;;19.60;91.90;;;;;;5031702;28;20324;-76
2023/08/24 05:58:00;;;;;;;;;;;19.60;92.00;;;;;;5031762;28;19913;-76
2023/08/24 06:00:26;;;;;;;;;;;19.60;92.00;;;;;;5033038;28;19913;-75
2023/08/24 06:02:51;;;;;;;;;;;19.70;91.90;;;;;;5032889;28;19916;-75
2023/08/24 06:05:17;;;;;;;;;;;19.60;92.00;;;;;;5032987;28;19931;-75
2023/08/24 06:07:43;;;;;;;;;;;19.70;92.00;;;;;;5032649;28;19909;-75
2023/08/24 06:10:09;;;;;;;;;;;19.70;92.10;;;;;;5032917;28;20257;-75
2023/08/24 06:12:35;;;;;;;;;;;19.70;92.00;;;;;;5064809;28;19920;-75
2023/08/24 06:15:03;;;;;;;;;;;19.70;92.10;;;;;;5033631;28;20269;-70
2023/08/24 06:17:29;;;;;;;;;;;19.70;92.10;;;;;;5032709;28;19909;-70
2023/08/24 06:19:54;;;;;;;;;;;19.70;92.00;;;;;;5032728;28;19920;-70
2023/08/24 06:22:20;;;;;;;;;;;19.70;92.10;;;;;;5032646;28;20434;-70
2023/08/24 06:24:45;;;;;;;;;;;19.70;92.00;;;;;;5032705;28;19909;-70
2023/08/24 06:27:11;;;;;;;;;;;19.70;92.10;;;;;;5032652;28;19941;-70
2023/08/24 06:29:36;;;;;;;;;;;19.70;92.10;;;;;;5064450;28;20318;-70
2023/08/24 06:32:02;;;;;;;;;;;19.70;92.10;;;;;;5032690;28;20329;-70
2023/08/24 06:34:27;;;;;;;;;;;19.70;92.20;;;;;;5032515;28;19971;-70
2023/08/24 06:36:53;;;;;;;;;;;19.80;92.20;;;;;;5032621;28;19910;-70
2023/08/24 06:39:19;;;;;;;;;;;19.80;92.20;;;;;;5032530;28;20062;-70
2023/08/24 06:41:44;;;;;;;;;;;19.80;92.30;;;;;;5031276;28;20046;-70
2023/08/24 06:44:10;;;;;;;;;;;19.80;92.20;;;;;;5032594;28;19909;-70
2023/08/24 06:46:35;;;;;;;;;;;19.80;92.30;;;;;;5032480;28;19944;-70
2023/08/24 06:49:01;;;;;;;;;;;19.80;92.20;;;;;;5032250;28;19909;-70
2023/08/24 06:51:27;;;;;;;;;;;19.80;92.20;;;;;;5032405;28;20391;-70
2023/08/24 06:53:52;;;;;;;;;;;19.80;92.50;;;;;;5032064;28;20293;-70
2023/08/24 06:56:18;;;;;;;;;;;19.80;92.20;;;;;;5032150;28;20071;-70
2023/08/24 06:58:44;;;;;;;;;;;19.80;92.40;;;;;;5032131;28;19909;-70
2023/08/24 07:01:10;;;;;;;;;;;19.90;92.30;;;;;;5030850;28;20364;-70
2023/08/24 07:03:36;;;;;;;;;;;19.80;92.30;;;;;;5031774;28;19917;-70
2023/08/24 07:06:02;;;;;;;;;;;19.90;92.30;;;;;;5031875;28;19915;-70
2023/08/24 07:08:27;;;;;;;;;;;19.90;92.40;;;;;;5031671;28;19955;-71
2023/08/24 07:10:53;;;;;;;;;;;19.90;92.40;;;;;;5031783;28;20266;-70
2023/08/24 07:13:18;;;;;;;;;;;19.90;92.30;;;;;;5031835;28;20281;-70
2023/08/24 07:15:45;;;;;;;;;;;20.00;92.30;;;;;;5063581;28;19913;-70
2023/08/24 07:18:10;;;;;;;;;;;19.90;92.40;;;;;;5030895;28;20015;-70
2023/08/24 07:20:36;;;;;;;;;;;19.90;92.30;;;;;;5031211;28;20430;-70
2023/08/24 07:23:02;;;;;;;;;;;20.00;92.40;;;;;;5031527;28;19960;-70
2023/08/24 07:25:28;;;;;;;;;;;20.00;92.40;;;;;;5033464;28;19963;-70
2023/08/24 07:27:58;;;;;;;;;;;20.00;92.40;;;;;;5035764;28;19967;-70
2023/08/24 07:30:29;;;;;;;;;;;20.00;92.30;;;;;;5036226;28;19917;-75
2023/08/24 07:32:54;;;;;;;;;;;20.00;92.30;;;;;;5035942;28;19970;-76
2023/08/24 07:35:20;;;;;;;;;;;20.00;92.30;;;;;;5035624;28;19921;-76
2023/08/24 07:37:47;;;;;;;;;;;20.00;92.30;;;;;;5035015;28;19955;-75
2023/08/24 07:40:13;;;;;;;;;;;20.10;92.30;;;;;;5035202;28;19983;-75
2023/08/24 07:42:50;;;;;;;;;;;20.10;92.30;;;;;;5035633;28;20327;-76
2023/08/24 07:45:16;;;;;;;;;;;20.10;92.30;;;;;;5035352;28;20424;-75
2023/08/24 07:47:42;;;;;;;;;;;20.10;92.30;;;;;;5034539;28;20401;-75
2023/08/24 07:50:09;;;;;;;;;;;20.10;92.30;;;;;;5033463;28;19959;-75
2023/08/24 07:52:34;;;;;;;;;;;20.20;92.20;;;;;;5034615;28;20418;-75
2023/08/24 07:55:03;;;;;;;;;;;20.20;92.10;;;;;;5034201;28;19913;-75
2023/08/24 07:57:28;;;;;;;;;;;20.20;92.10;;;;;;5034188;28;20277;-76
2023/08/24 07:59:54;;;;;;;;;;;20.20;92.10;;;;;;5034354;28;20008;-75
2023/08/24 08:02:20;;;;;;;;;;;20.30;92.10;;;;;;5035650;28;19948;-75
2023/08/24 08:04:46;;;;;;;;;;;20.30;92.00;;;;;;5035309;28;19917;-76
2023/08/24 08:07:11;;;;;;;;;;;20.30;92.00;;;;;;5035505;28;19909;-70
2023/08/24 08:09:37;;;;;;;;;;;20.40;92.00;;;;;;5034724;28;20305;-70
2023/08/24 08:12:03;;;;;;;;;;;20.40;91.90;;;;;;5035067;28;19963;-70
2023/08/24 08:14:29;;;;;;;;;;;20.40;91.90;;;;;;5034088;28;20020;-75
2023/08/24 08:16:55;;;;;;;;;;;20.40;91.80;;;;;;5035239;28;20358;-75
2023/08/24 08:19:21;;;;;;;;;;;20.50;91.80;;;;;;5067221;28;19909;-75
2023/08/24 08:21:47;;;;;;;;;;;20.50;91.80;;;;;;5035247;28;20322;-75
2023/08/24 08:24:13;;;;;;;;;;;20.50;91.70;;;;;;5034061;28;19916;-70
2023/08/24 08:26:38;;;;;;;;;;;20.50;91.70;;;;;;5035132;28;20287;-70
2023/08/24 08:29:05;;;;;;;;;;;20.60;91.60;;;;;;5034696;28;20027;-71
2023/08/24 08:31:30;;;;;;;;;;;20.60;91.80;;;;;;5033796;28;19917;-70
2023/08/24 08:33:56;;;;;;;;;;;20.60;91.50;;;;;;5033482;28;19918;-70
2023/08/24 08:36:21;;;;;;;;;;;20.70;91.50;;;;;;5033758;28;19992;-71
2023/08/24 08:38:47;;;;;;;;;;;20.70;91.50;;;;;;5034617;28;19909;-70
2023/08/24 08:41:14;;;;;;;;;;;20.80;91.50;;;;;;5034456;28;20381;-70
2023/08/24 08:43:40;;;;;;;;;;;20.80;91.40;;;;;;5034117;28;19909;-70
2023/08/24 08:46:06;;;;;;;;;;;20.80;91.30;;;;;;5034181;28;20004;-70
2023/08/24 08:48:32;;;;;;;;;;;20.80;91.20;;;;;;5033897;28;19948;-70
2023/08/24 08:50:58;;;;;;;;;;;20.90;91.20;;;;;;5032829;28;19917;-70
2023/08/24 08:53:23;;;;;;;;;;;20.90;91.20;;;;;;5032676;28;19992;-70
2023/08/24 08:55:53;;;;;;;;;;;21.00;91.20;;;;;;5033758;28;19921;-70
2023/08/24 08:58:19;;;;;;;;;;;21.00;91.20;;;;;;5033991;28;19951;-70
2023/08/24 09:00:46;;;;;;;;;;;21.00;91.10;;;;;;5034349;28;19909;-71
2023/08/24 09:03:11;;;;;;;;;;;21.10;91.10;;;;;;5034254;28;20350;-70
2023/08/24 09:05:37;;;;;;;;;;;21.10;91.00;;;;;;5034235;28;19916;-70
2023/08/24 09:08:04;;;;;;;;;;;21.20;91.10;;;;;;5033980;28;19909;-70
2023/08/24 09:10:31;;;;;;;;;;;21.20;91.10;;;;;;5034113;28;19998;-70
2023/08/24 09:12:56;;;;;;;;;;;21.30;91.10;;;;;;5034258;28;19909;-70
2023/08/24 09:15:26;;;;;;;;;;;21.30;90.90;;;;;;5034031;28;19920;-70
2023/08/24 09:17:55;;;;;;;;;;;21.40;91.00;;;;;;5033742;28;19909;-70
2023/08/24 09:20:20;;;;;;;;;;;21.40;90.90;;;;;;5034069;28;19916;-70
2023/08/24 09:22:46;;;;;;;;;;;21.50;90.90;;;;;;5033799;28;19909;-70
2023/08/24 09:25:11;;;;;;;;;;;21.50;90.90;;;;;;5033557;28;19909;-70
2023/08/24 09:27:37;;;;;;;;;;;21.60;91.00;;;;;;5032438;28;19959;-70
2023/08/24 09:30:03;;;;;;;;;;;21.60;90.90;;;;;;5033203;28;19924;-70
2023/08/24 09:32:29;;;;;;;;;;;21.70;90.80;;;;;;5033387;28;19954;-70
2023/08/24 09:34:55;;;;;;;;;;;21.80;90.80;;;;;;5033297;28;19913;-70
2023/08/24 09:37:21;;;;;;;;;;;21.80;90.80;;;;;;5033253;28;19916;-70
2023/08/24 09:39:46;;;;;;;;;;;21.90;90.50;;;;;;5033308;28;19916;-70
2023/08/24 09:42:12;;;;;;;;;;;22.00;90.60;;;;;;5033117;28;19971;-70
2023/08/24 09:44:37;;;;;;;;;;;22.00;90.50;;;;;;5033139;28;19909;-70
2023/08/24 09:47:08;;;;;;;;;;;22.10;90.50;;;;;;5033002;28;19916;-70
2023/08/24 09:49:34;;;;;;;;;;;22.20;90.50;;;;;;5064917;28;20329;-70
2023/08/24 09:52:00;;;;;;;;;;;22.20;90.50;;;;;;5033058;28;19909;-70
2023/08/24 09:54:30;;;;;;;;;;;22.30;90.60;;;;;;5032857;28;19924;-70
2023/08/24 09:56:57;;;;;;;;;;;22.30;90.40;;;;;;5064872;28;20293;-70
2023/08/24 09:59:24;;;;;;;;;;;22.40;90.20;;;;;;5031371;28;19909;-70
2023/08/24 10:01:50;;;;;;;;;;;22.40;90.20;;;;;;5032781;28;19916;-70
2023/08/24 10:04:23;;;;;;;;;;;22.50;90.30;;;;;;5032797;28;20255;-70
2023/08/24 10:06:51;;;;;;;;;;;22.60;90.30;;;;;;5032822;28;19935;-70
2023/08/24 10:09:21;;;;;;;;;;;22.70;90.10;;;;;;5032717;28;19909;-71
2023/08/24 10:11:52;;;;;;;;;;;22.70;90.20;;;;;;5032777;28;19913;-71
2023/08/24 10:14:23;;;;;;;;;;;22.80;90.30;;;;;;5032512;28;20249;-71
2023/08/24 10:16:50;;;;;;;;;;;22.90;90.30;;;;;;5031381;28;19913;-71
2023/08/24 10:19:15;;;;;;;;;;;22.90;90.10;;;;;;5032287;28;19967;-71
2023/08/24 10:21:41;;;;;;;;;;;23.00;90.10;;;;;;5032533;28;19909;-71
2023/08/24 10:24:09;;;;;;;;;;;23.10;90.00;;;;;;5032188;28;19916;-71
2023/08/24 10:26:35;;;;;;;;;;;23.10;90.00;;;;;;5032537;28;19955;-74
2023/08/24 10:29:03;;;;;;;;;;;23.20;90.10;;;;;;5064057;28;20306;-74
2023/08/24 10:31:28;;;;;;;;;;;23.20;90.00;;;;;;5032429;28;19913;-74
2023/08/24 10:33:54;;;;;;;;;;;23.30;90.00;;;;;;5032227;28;20301;-74
2023/08/24 10:36:20;;;;;;;;;;;23.30;89.70;;;;;;5032265;28;20003;-74
2023/08/24 10:38:46;;;;;;;;;;;23.40;89.80;;;;;;5063809;28;19979;-74
2023/08/24 10:41:13;;;;;;;;;;;23.50;89.70;;;;;;5031705;28;20410;-74
2023/08/24 10:43:40;;;;;;;;;;;23.60;89.50;;;;;;5031661;28;19916;-74
2023/08/24 10:46:12;;;;;;;;;;;23.70;89.50;;;;;;5031514;28;19913;-74
2023/08/24 10:48:41;;;;;;;;;;;23.80;89.50;;;;;;5030392;28;19917;-74
2023/08/24 10:51:21;;;;;;;;;;;23.80;89.30;;;;;;5064454;28;20332;-74
2023/08/24 10:53:50;;;;;;;;;;;23.90;89.10;;;;;;5032143;28;19916;-74
2023/08/24 10:56:17;;;;;;;;;;;24.00;89.50;;;;;;5031993;28;19917;-74
2023/08/24 10:58:44;;;;;;;;;;;24.10;88.90;;;;;;5031753;28;19909;-74
2023/08/24 11:01:21;;;;;;;;;;;24.10;89.10;;;;;;5030532;28;19909;-74
2023/08/24 11:03:50;;;;;;;;;;;24.20;89.10;;;;;;5032114;28;19909;-74
2023/08/24 11:06:23;;;;;;;;;;;24.30;89.00;;;;;;5031013;28;20000;-74
2023/08/24 11:08:48;;;;;;;;;;;24.40;88.70;;;;;;5029608;28;19909;-74
2023/08/24 11:11:20;;;;;;;;;;;24.50;88.70;;;;;;5031347;28;20396;-74
2023/08/24 11:14:29;;;;;;;;;;;24.50;88.50;;;;;;5031520;28;19909;-74
2023/08/24 11:17:16;;;;;;;;;;;24.60;88.20;;;;;;5029575;28;19924;-73
2023/08/24 11:19:48;;;;;;;;;;;24.70;88.40;;;;;;5029317;28;19996;-73
2023/08/24 11:22:14;;;;;;;;;;;24.80;87.90;;;;;;5031009;28;19956;-73
2023/08/24 11:24:40;;;;;;;;;;;24.90;88.50;;;;;;5030347;28;19924;-73
2023/08/24 11:27:08;;;;;;;;;;;25.00;88.10;;;;;;5031630;28;19931;-73
2023/08/24 11:29:34;;;;;;;;;;;25.00;87.70;;;;;;5063516;28;20325;-73
2023/08/24 11:31:59;;;;;;;;;;;25.10;87.90;;;;;;5063549;28;19909;-73
2023/08/24 11:34:25;;;;;;;;;;;25.20;87.70;;;;;;5031509;28;19917;-73
2023/08/24 11:36:50;;;;;;;;;;;25.20;87.70;;;;;;5031612;28;19909;-73
2023/08/24 11:39:17;;;;;;;;;;;25.30;88.00;;;;;;5030171;28;19944;-73
2023/08/24 11:41:44;;;;;;;;;;;25.30;87.60;;;;;;5031607;28;19959;-73
2023/08/24 11:44:09;;;;;;;;;;;25.40;87.70;;;;;;5031521;28;19917;-73
2023/08/24 11:46:36;;;;;;;;;;;25.50;87.40;;;;;;5031632;28;19913;-73
2023/08/24 11:49:04;;;;;;;;;;;25.50;87.40;;;;;;5031220;28;20309;-73
2023/08/24 11:51:32;;;;;;;;;;;25.50;87.30;;;;;;5031596;28;19916;-73
2023/08/24 11:53:59;;;;;;;;;;;25.50;87.10;;;;;;5031356;28;19932;-73
2023/08/24 11:56:24;;;;;;;;;;;25.50;87.40;;;;;;5031489;28;19912;-73
2023/08/24 11:58:52;;;;;;;;;;;25.50;87.40;;;;;;5031345;28;19916;-73
2023/08/24 12:01:18;;;;;;;;;;;25.50;87.40;;;;;;5031461;28;20392;-73
2023/08/24 12:03:44;;;;;;;;;;;25.50;87.50;;;;;;5031230;28;19909;-73
2023/08/24 12:06:10;;;;;;;;;;;25.50;87.60;;;;;;5031280;28;19909;-73
2023/08/24 12:08:43;;;;;;;;;;;25.60;87.90;;;;;;5063111;28;20008;-73
2023/08/24 12:11:15;;;;;;;;;;;25.60;87.90;;;;;;5032724;28;20426;-73
2023/08/24 12:13:48;;;;;;;;;;;25.60;87.80;;;;;;5067104;28;19994;-73
2023/08/24 12:16:15;;;;;;;;;;;25.60;87.70;;;;;;5034777;28;19913;-73
2023/08/24 12:19:07;;;;;;;;;;;25.70;87.70;;;;;;5034392;28;19909;-73
2023/08/24 12:21:32;;;;;;;;;;;25.70;87.60;;;;;;5034447;28;19920;-73
2023/08/24 12:24:03;;;;;;;;;;;25.70;87.40;;;;;;5034623;28;19909;-73
2023/08/24 12:26:29;;;;;;;;;;;25.80;87.60;;;;;;5034551;28;19952;-73
2023/08/24 12:29:02;;;;;;;;;;;25.80;87.20;;;;;;5034349;28;19920;-73
2023/08/24 12:31:28;;;;;;;;;;;25.80;86.70;;;;;;5034609;28;19920;-73
2023/08/24 12:34:01;;;;;;;;;;;25.80;87.30;;;;;;5034466;28;19909;-73
2023/08/24 12:36:26;;;;;;;;;;;25.90;87.30;;;;;;5034368;28;19917;-73
2023/08/24 12:38:52;;;;;;;;;;;25.90;87.20;;;;;;5034179;28;19917;-73
2023/08/24 12:41:17;;;;;;;;;;;25.90;87.30;;;;;;5034414;28;19913;-73
2023/08/24 12:43:43;;;;;;;;;;;25.90;87.40;;;;;;5034298;28;20362;-73
2023/08/24 12:46:09;;;;;;;;;;;25.90;87.50;;;;;;5034274;28;19909;-73
2023/08/24 12:48:34;;;;;;;;;;;25.90;87.30;;;;;;5033894;28;19915;-73
2023/08/24 12:51:00;;;;;;;;;;;25.90;87.40;;;;;;5034170;28;19910;-73
2023/08/24 12:53:25;;;;;;;;;;;25.90;87.40;;;;;;5034118;28;19920;-73
2023/08/24 12:55:51;;;;;;;;;;;25.90;87.50;;;;;;5033780;28;19913;-73
2023/08/24 12:58:18;;;;;;;;;;;25.80;87.50;;;;;;5033850;28;20449;-73
2023/08/24 13:00:44;;;;;;;;;;;25.80;87.70;;;;;;5033881;28;19987;-73
2023/08/24 13:03:09;;;;;;;;;;;25.80;87.80;;;;;;5033783;28;19930;-73
2023/08/24 13:05:35;;;;;;;;;;;25.70;88.20;;;;;;5033791;28;19921;-73
2023/08/24 13:08:00;;;;;;;;;;;25.70;88.30;;;;;;5033631;28;20479;-73
2023/08/24 13:10:26;;;;;;;;;;;25.60;88.50;;;;;;5033819;28;20250;-73
2023/08/24 13:12:51;;;;;;;;;;;25.60;88.60;;;;;;5033786;28;19913;-74
2023/08/24 13:15:17;;;;;;;;;;;25.60;88.80;;;;;;5033784;28;19914;-74
2023/08/24 13:17:42;;;;;;;;;;;25.50;88.90;;;;;;5033019;28;19916;-73
2023/08/24 13:20:08;;;;;;;;;;;25.50;88.90;;;;;;5033246;28;19909;-73
2023/08/24 13:22:33;;;;;;;;;;;25.40;89.00;;;;;;5032869;28;19909;-73
2023/08/24 13:24:59;;;;;;;;;;;25.40;89.00;;;;;;5065670;28;19909;-74
2023/08/24 13:27:24;;;;;;;;;;;25.40;89.10;;;;;;5033414;28;19935;-73
2023/08/24 13:29:50;;;;;;;;;;;25.40;89.20;;;;;;5065148;28;19967;-74
2023/08/24 13:32:15;;;;;;;;;;;25.30;89.10;;;;;;5033090;28;20429;-73
2023/08/24 13:34:41;;;;;;;;;;;25.30;89.10;;;;;;5032953;28;19963;-74
2023/08/24 13:37:06;;;;;;;;;;;25.30;89.20;;;;;;5032955;28;19909;-74
2023/08/24 13:39:34;;;;;;;;;;;25.30;89.30;;;;;;5032110;28;20077;-73
2023/08/24 13:41:59;;;;;;;;;;;25.40;89.40;;;;;;5033029;28;19909;-74
2023/08/24 13:44:25;;;;;;;;;;;25.40;89.50;;;;;;5032769;28;19963;-74
2023/08/24 13:46:51;;;;;;;;;;;25.40;89.80;;;;;;5032645;28;19910;-73
2023/08/24 13:49:17;;;;;;;;;;;25.40;89.70;;;;;;5032275;28;19937;-73
2023/08/24 13:51:42;;;;;;;;;;;25.40;89.60;;;;;;5031407;28;19910;-73
2023/08/24 13:54:17;;;;;;;;;;;25.50;89.70;;;;;;5032692;28;19909;-74
2023/08/24 13:56:44;;;;;;;;;;;25.40;89.60;;;;;;5031526;28;20300;-74
2023/08/24 13:59:09;;;;;;;;;;;25.50;89.60;;;;;;5032946;28;19909;-73
2023/08/24 14:01:35;;;;;;;;;;;25.40;89.40;;;;;;5032651;28;19913;-74
2023/08/24 14:04:02;;;;;;;;;;;25.40;89.40;;;;;;5030997;28;19917;-73
2023/08/24 14:06:31;;;;;;;;;;;25.40;89.30;;;;;;5032135;28;20406;-74
2023/08/24 14:08:56;;;;;;;;;;;25.40;89.40;;;;;;5031577;28;20092;-74
2023/08/24 14:11:22;;;;;;;;;;;25.40;89.40;;;;;;5032148;28;19913;-73
2023/08/24 14:13:47;;;;;;;;;;;25.40;89.40;;;;;;5032323;28;19909;-74